createdAt,value
2022-12-25T00:04:32.226Z,-0.21
2022-12-25T00:09:54.519Z,-0.20
2022-12-25T00:15:17.219Z,-0.22
2022-12-25T00:20:39.416Z,-0.19
2022-12-25T00:26:01.829Z,-0.19
2022-12-25T00:31:29.941Z,-0.16
2022-12-25T00:36:52.556Z,-0.16
2022-12-25T00:42:23.780Z,-0.16
2022-12-25T00:47:46.490Z,-0.15
2022-12-25T00:53:08.714Z,-0.15
2022-12-25T00:58:31.485Z,-0.12
2022-12-25T01:03:53.693Z,-0.12
2022-12-25T01:09:33.706Z,-0.12
2022-12-25T01:14:50.526Z,-0.15
2022-12-25T01:20:13.430Z,-0.12
2022-12-25T01:25:35.696Z,-0.11
2022-12-25T01:31:01.956Z,-0.10
2022-12-25T01:36:30.724Z,-0.07
2022-12-25T01:41:53.180Z,-0.26
2022-12-25T01:47:19.106Z,-0.26
2022-12-25T01:52:43.222Z,-0.05
2022-12-25T01:58:05.516Z,-0.03
2022-12-25T02:03:28.385Z,-0.02
2022-12-25T02:08:50.900Z,0.00
2022-12-25T02:14:13.651Z,-0.02
2022-12-25T02:19:57.617Z,-0.01
2022-12-25T02:25:43.520Z,0.01
2022-12-25T02:31:29.108Z,-0.04
2022-12-25T02:37:04.914Z,0.01
2022-12-25T02:43:00.985Z,0.02
2022-12-25T02:48:43.620Z,-0.02
2022-12-25T02:54:28.288Z,-0.05
2022-12-25T03:00:12.219Z,-0.03
2022-12-25T03:05:56.109Z,0.01
2022-12-25T03:11:33.766Z,0.01
2022-12-25T03:16:57.743Z,-0.01
2022-12-25T03:22:49.594Z,0.00
2022-12-25T03:28:13.996Z,0.03
2022-12-25T03:33:46.272Z,0.01
2022-12-25T03:39:47.189Z,0.10
2022-12-25T03:45:35.075Z,-0.02
2022-12-25T03:51:31.879Z,-0.02
2022-12-25T03:57:14.925Z,-0.04
2022-12-25T04:02:54.911Z,-0.04
2022-12-25T04:08:29.622Z,-0.03
2022-12-25T04:14:09.389Z,-0.05
2022-12-25T04:19:49.344Z,0.00
2022-12-25T04:25:29.164Z,0.01
2022-12-25T04:31:09.329Z,-0.02
2022-12-25T04:36:31.702Z,0.02
2022-12-25T04:41:54.124Z,-0.02
2022-12-25T04:47:16.370Z,0.11
2022-12-25T04:52:40.355Z,0.15
2022-12-25T04:58:02.633Z,0.14
2022-12-25T05:03:25.514Z,0.08
2022-12-25T05:08:48.787Z,0.12
2022-12-25T05:14:11.226Z,0.17
2022-12-25T05:19:33.795Z,0.15
2022-12-25T05:24:56.100Z,0.19
2022-12-25T05:30:19.046Z,0.19
2022-12-25T05:35:42.894Z,0.23
2022-12-25T05:41:05.329Z,0.24
2022-12-25T05:46:29.018Z,0.23
2022-12-25T05:51:51.619Z,0.24
2022-12-25T05:57:14.013Z,0.27
2022-12-25T06:02:36.867Z,0.30
2022-12-25T06:07:59.471Z,0.28
2022-12-25T06:13:22.262Z,0.27
2022-12-25T06:18:48.039Z,0.28
2022-12-25T06:24:17.651Z,0.29
2022-12-25T06:29:36.250Z,0.26
2022-12-25T06:34:58.465Z,0.25
2022-12-25T06:40:21.374Z,0.23
2022-12-25T06:45:43.906Z,0.22
2022-12-25T06:51:06.313Z,0.26
2022-12-25T06:56:34.521Z,0.26
2022-12-25T07:02:03.591Z,0.28
2022-12-25T07:07:27.357Z,0.31
2022-12-25T07:12:49.628Z,0.31
2022-12-25T07:18:11.915Z,0.31
2022-12-25T07:23:34.622Z,0.37
2022-12-25T07:28:57.181Z,0.41
2022-12-25T07:34:19.446Z,0.45
2022-12-25T07:39:41.749Z,0.46
2022-12-25T07:45:04.258Z,0.44
2022-12-25T07:50:27.086Z,0.48
2022-12-25T07:55:49.312Z,0.55
2022-12-25T08:01:23.942Z,0.64
2022-12-25T08:06:49.023Z,0.67
2022-12-25T08:12:11.608Z,0.70
2022-12-25T08:17:33.872Z,0.69
2022-12-25T08:22:56.222Z,0.77
2022-12-25T08:28:20.086Z,0.82
2022-12-25T08:33:44.081Z,0.84
2022-12-25T08:39:06.941Z,0.83
2022-12-25T08:44:31.183Z,0.82
2022-12-25T08:49:53.483Z,0.85
2022-12-25T08:55:15.976Z,0.88
2022-12-25T09:00:38.529Z,0.93
2022-12-25T09:06:01.596Z,0.98
2022-12-25T09:11:27.358Z,1.04
2022-12-25T09:16:49.886Z,1.05
2022-12-25T09:22:12.160Z,1.10
2022-12-25T09:27:34.978Z,1.21
2022-12-25T09:32:57.558Z,1.29
2022-12-25T09:38:19.936Z,1.30
2022-12-25T09:43:49.394Z,1.35
2022-12-25T09:49:47.690Z,1.39
2022-12-25T09:55:24.497Z,1.53
2022-12-25T10:00:57.891Z,1.56
2022-12-25T10:07:04.429Z,1.56
2022-12-25T10:12:49.935Z,1.60
2022-12-25T10:18:25.106Z,1.67
2022-12-25T10:23:54.441Z,1.71
2022-12-25T10:29:21.563Z,1.82
2022-12-25T10:34:45.789Z,1.88
2022-12-25T10:40:08.135Z,2.04
2022-12-25T10:45:30.440Z,2.00
2022-12-25T10:50:54.654Z,1.99
2022-12-25T10:56:29.468Z,2.08
2022-12-25T11:01:55.254Z,2.13
2022-12-25T11:07:27.768Z,2.23
2022-12-25T11:12:53.170Z,2.35
2022-12-25T11:18:29.315Z,2.46
2022-12-25T11:23:54.675Z,2.50
2022-12-25T11:29:33.032Z,2.51
2022-12-25T11:34:58.938Z,2.51
2022-12-25T11:40:24.571Z,2.45
2022-12-25T11:45:57.590Z,2.55
2022-12-25T11:51:22.343Z,2.61
2022-12-25T11:56:46.131Z,2.64
2022-12-25T12:02:34.270Z,2.68
2022-12-25T12:08:06.726Z,2.63
2022-12-25T12:13:45.993Z,2.65
2022-12-25T12:19:10.602Z,2.65
2022-12-25T12:24:43.144Z,2.71
2022-12-25T12:30:08.710Z,2.72
2022-12-25T12:35:44.291Z,2.71
2022-12-25T12:41:19.394Z,2.74
2022-12-25T12:46:49.775Z,2.77
2022-12-25T12:52:42.578Z,2.80
2022-12-25T12:58:10.835Z,2.84
2022-12-25T13:03:53.352Z,2.84
2022-12-25T13:09:54.284Z,2.87
2022-12-25T13:15:19.401Z,2.92
2022-12-25T13:21:02.667Z,2.87
2022-12-25T13:26:33.840Z,2.88
2022-12-25T13:31:57.009Z,2.91
2022-12-25T13:37:23.579Z,3.14
2022-12-25T13:42:51.539Z,3.06
2022-12-25T13:48:17.130Z,3.09
2022-12-25T13:53:40.339Z,3.09
2022-12-25T13:59:05.575Z,3.21
2022-12-25T14:04:31.420Z,3.20
2022-12-25T14:09:54.936Z,3.16
2022-12-25T14:15:20.316Z,3.12
2022-12-25T14:20:48.998Z,3.14
2022-12-25T14:26:11.582Z,3.14
2022-12-25T14:31:35.062Z,3.15
2022-12-25T14:36:58.715Z,3.16
2022-12-25T14:42:28.399Z,3.11
2022-12-25T14:48:07.391Z,3.09
2022-12-25T14:53:41.136Z,3.13
2022-12-25T14:59:10.554Z,3.11
2022-12-25T15:04:35.886Z,3.04
2022-12-25T15:10:27.029Z,2.99
2022-12-25T15:15:23.290Z,2.97
2022-12-25T15:20:56.696Z,3.02
2022-12-25T15:26:20.003Z,3.07
2022-12-25T15:31:45.045Z,2.99
2022-12-25T15:37:07.545Z,2.98
2022-12-25T15:42:33.246Z,3.04
2022-12-25T15:47:56.200Z,3.00
2022-12-25T15:53:18.735Z,2.96
2022-12-25T15:58:41.188Z,2.96
2022-12-25T16:04:03.797Z,3.06
2022-12-25T16:09:28.238Z,3.06
2022-12-25T16:14:51.062Z,3.04
2022-12-25T16:20:14.436Z,3.05
2022-12-25T16:25:37.857Z,3.05
2022-12-25T16:31:02.057Z,3.08
2022-12-25T16:41:57.916Z,3.22
2022-12-25T16:47:20.368Z,3.11
2022-12-25T16:52:44.168Z,3.12
2022-12-25T16:58:06.991Z,3.15
2022-12-25T17:03:29.979Z,3.20
2022-12-25T17:08:52.771Z,3.23
2022-12-25T17:14:19.542Z,3.30
2022-12-25T17:19:42.820Z,3.28
2022-12-25T17:25:06.091Z,3.25
2022-12-25T17:30:29.316Z,3.24
2022-12-25T17:35:56.158Z,3.24
2022-12-25T17:41:20.137Z,3.26
2022-12-25T17:46:44.085Z,3.62
2022-12-25T17:52:06.796Z,3.52
2022-12-25T17:57:29.063Z,3.40
2022-12-25T18:02:53.104Z,3.33
2022-12-25T18:08:15.799Z,3.34
2022-12-25T18:13:38.205Z,3.32
2022-12-25T18:19:01.521Z,3.33
2022-12-25T18:24:24.738Z,3.38
2022-12-25T18:29:46.991Z,3.36
2022-12-25T18:35:11.127Z,3.39
2022-12-25T18:40:33.479Z,3.39
2022-12-25T18:46:05.461Z,3.39
2022-12-25T18:51:36.578Z,3.40
2022-12-25T18:56:54.621Z,3.41
2022-12-25T19:02:17.926Z,3.42
2022-12-25T19:07:41.207Z,3.47
2022-12-25T19:13:03.424Z,3.47
2022-12-25T19:18:25.994Z,3.43
2022-12-25T19:23:49.566Z,3.40
2022-12-25T19:29:15.767Z,3.44
2022-12-25T19:34:43.184Z,3.45
2022-12-25T19:40:05.601Z,3.48
2022-12-25T19:45:28.928Z,3.48
2022-12-25T19:50:51.261Z,3.48
2022-12-25T19:56:14.569Z,3.49
2022-12-25T20:01:39.784Z,3.49
2022-12-25T20:07:02.746Z,3.51
2022-12-25T20:12:25.098Z,3.52
2022-12-25T20:17:48.123Z,3.54
2022-12-25T20:23:10.528Z,3.55
2022-12-25T20:28:34.775Z,3.58
2022-12-25T20:33:57.024Z,3.64
2022-12-25T20:39:20.299Z,3.61
2022-12-25T20:44:42.876Z,3.69
2022-12-25T20:50:06.107Z,3.71
2022-12-25T20:55:28.493Z,3.78
2022-12-25T21:00:52.305Z,3.85
2022-12-25T21:06:16.341Z,3.86
2022-12-25T21:11:39.018Z,3.91
2022-12-25T21:17:01.710Z,3.92
2022-12-25T21:22:25.335Z,3.94
2022-12-25T21:27:48.012Z,3.94
2022-12-25T21:33:28.538Z,3.94
2022-12-25T21:38:52.244Z,3.90
2022-12-25T21:44:19.925Z,3.87
2022-12-25T21:49:59.870Z,3.85
2022-12-25T21:55:22.301Z,3.85
2022-12-25T22:00:45.011Z,3.84
2022-12-25T22:06:27.041Z,3.89
2022-12-25T22:12:06.967Z,3.90
2022-12-25T22:17:52.747Z,3.92
2022-12-25T22:23:16.607Z,3.91
2022-12-25T22:28:48.764Z,3.88
2022-12-25T22:34:13.670Z,3.85
2022-12-25T22:39:36.614Z,3.83
2022-12-25T22:44:58.879Z,3.82
2022-12-25T22:50:21.981Z,3.77
2022-12-25T22:55:44.377Z,3.70
2022-12-25T23:01:07.778Z,3.68
2022-12-25T23:06:30.460Z,3.69
2022-12-25T23:11:52.972Z,3.75
2022-12-25T23:17:36.425Z,3.78
2022-12-25T23:23:17.353Z,3.87
2022-12-25T23:28:57.744Z,3.90
2022-12-25T23:34:20.859Z,3.94
2022-12-25T23:39:43.195Z,3.90
2022-12-25T23:45:05.498Z,3.89
2022-12-25T23:50:28.198Z,3.92
2022-12-25T23:55:55.777Z,4.00
